24 Sep 2020 08:20 UTC 2020268+08:20 UTC

Overview Datums Bench Marks Data Query Site Visit Daily QC Messages Attributes

171: National Park Service - Bird Island

27° 29' 4" N   97° 19' 5" W
NPSBI
United States National Park Service United States National Park Service

Station Information

National Park Service - Bird Island
National Park Service - Bird Island
more pictures
 
Station Name:National Park Service - Bird Island
DNR ID:171
Location:27° 29' 4" N, 97° 19' 5" W

Water Level Forecasts

Latest Observations

Series Metric English Marine Observed at
Water Temperature 25.8 °C 78.4 °F 78.4 °F Sep 24 03:00 CDT
00h12m ago
Salinity 37.100 psu 37.100 psu 37.100 psu Sep 24 03:00 CDT
00h12m ago
Turbidity 6 ntu 6 ntu 6 ntu Sep 24 03:00 CDT
00h12m ago
Dissolved Oxygen 5.81 mg/L 0.000363 lb/ft3 0.000363 lb/ft3 Sep 24 03:00 CDT
00h12m ago

Maps

National Park Service - Bird Island
All Stations in Area
Entire Network
 

Recent Observations

Date/Time Water
Temp (°F)
Sal (psu) pH (pH) Turb (ntu) DO (lb/ft3)
Sep 24 03:00 CDT 78.4 37.100 6 0.000363
Sep 24 02:00 CDT 78.6 37.100 8 0.000391
Sep 24 01:00 CDT 78.8 37.100 8 0.000416
Sep 24 00:00 CDT 78.6 37.100 11 0.000428
Sep 23 23:00 CDT 79.3 37.000 10 0.000447
Sep 23 22:00 CDT 79.7 36.900 8 0.000490
Sep 23 21:00 CDT 79.7 36.900 7 0.000524
Sep 23 20:00 CDT 80.2 36.900 8 0.000547
Sep 23 19:00 CDT 79.7 37.000 8 0.000539
Sep 23 18:00 CDT 80.1 36.900 8 0.000573
Sep 23 17:00 CDT 80.2 36.800 6 0.000561
Sep 23 16:00 CDT 79.9 36.800 7 0.000555
Sep 23 15:00 CDT 79.5 36.800 6 0.000520
Sep 23 14:00 CDT 79.3 36.800 6 0.000517
Sep 23 13:00 CDT 78.1 36.900 6 0.000440
Sep 23 12:00 CDT 77.2 37.100 6 0.000479
Sep 23 11:00 CDT 76.5 37.200 6 0.000406
Sep 23 10:00 CDT 76.1 37.200 6 0.000383
Sep 23 09:00 CDT 75.9 37.200 6 0.000363
Sep 23 08:00 CDT 75.9 37.100 7 0.000364
Sep 23 07:00 CDT 75.9 37.100 7 0.000350
Sep 23 06:00 CDT 75.9 36.900 7 0.000354
Sep 23 05:00 CDT 76.1 36.800 7 0.000363
Sep 23 04:00 CDT 76.1 36.800 7 0.000381
Sep 23 03:00 CDT 76.3 36.800 7 0.000388

Historical Data Availability